createdAt,value
2019-02-08T00:01:10.566Z,96.00
2019-02-08T00:03:38.438Z,96.20
2019-02-08T00:06:06.240Z,96.30
2019-02-08T00:08:34.110Z,96.10
2019-02-08T00:11:01.894Z,96.10
2019-02-08T00:13:30.004Z,95.90
2019-02-08T00:15:57.909Z,96.40
2019-02-08T00:18:25.799Z,95.90
2019-02-08T00:20:54.517Z,96.00
2019-02-08T00:23:26.859Z,95.90
2019-02-08T00:25:52.044Z,95.80
2019-02-08T00:28:20.042Z,95.80
2019-02-08T00:30:47.830Z,95.80
2019-02-08T00:33:15.652Z,95.80
2019-02-08T00:35:43.433Z,95.70
2019-02-08T00:38:11.121Z,95.60
2019-02-08T00:40:39.504Z,95.70
2019-02-08T00:43:07.534Z,95.80
2019-02-08T00:45:35.476Z,95.80
2019-02-08T00:48:03.607Z,95.80
2019-02-08T00:50:31.454Z,95.70
2019-02-08T00:52:59.424Z,95.90
2019-02-08T00:55:27.209Z,96.00
2019-02-08T00:57:55.406Z,96.10
2019-02-08T01:00:23.606Z,96.30
2019-02-08T01:02:52.166Z,96.30
2019-02-08T01:05:21.350Z,96.40
2019-02-08T01:07:51.643Z,96.30
2019-02-08T01:10:23.070Z,96.20
2019-02-08T01:12:52.553Z,96.00
2019-02-08T01:15:21.233Z,95.90
2019-02-08T01:17:50.618Z,95.80
2019-02-08T01:20:19.022Z,95.60
2019-02-08T01:22:48.495Z,95.50
2019-02-08T01:25:18.471Z,95.20
2019-02-08T01:27:48.490Z,95.20
2019-02-08T01:30:19.009Z,94.90
2019-02-08T01:32:48.397Z,95.00
2019-02-08T01:35:17.254Z,95.00
2019-02-08T01:37:46.536Z,95.20
2019-02-08T01:40:17.799Z,95.20
2019-02-08T01:42:47.146Z,95.10
2019-02-08T01:45:17.605Z,95.20
2019-02-08T01:47:46.962Z,95.20
2019-02-08T01:50:18.014Z,95.20
2019-02-08T01:52:47.400Z,95.00
2019-02-08T01:55:16.595Z,95.30
2019-02-08T01:57:44.657Z,95.50
2019-02-08T02:00:19.373Z,95.30
2019-02-08T02:02:48.699Z,95.50
2019-02-08T02:05:16.751Z,95.50
2019-02-08T02:07:46.205Z,95.40
2019-02-08T02:10:38.042Z,95.30
2019-02-08T02:13:08.003Z,95.00
2019-02-08T02:15:36.351Z,95.30
2019-02-08T02:18:04.995Z,95.20
2019-02-08T02:20:35.246Z,95.30
2019-02-08T02:23:05.607Z,95.60
2019-02-08T02:25:36.313Z,95.80
2019-02-08T02:28:04.554Z,96.00
2019-02-08T02:30:33.728Z,96.30
2019-02-08T02:33:02.517Z,96.40
2019-02-08T02:35:32.074Z,96.40
2019-02-08T02:37:59.827Z,96.30
2019-02-08T02:40:27.690Z,96.20
2019-02-08T02:42:55.362Z,96.20
2019-02-08T02:45:25.623Z,96.30
2019-02-08T02:47:55.128Z,96.00
2019-02-08T02:50:23.718Z,96.10
2019-02-08T02:52:51.612Z,95.80
2019-02-08T02:55:20.786Z,96.00
2019-02-08T02:57:50.117Z,96.00
2019-02-08T03:00:21.579Z,96.10
2019-02-08T03:02:50.934Z,96.10
2019-02-08T03:05:18.778Z,95.70
2019-02-08T03:07:46.733Z,95.80
2019-02-08T03:10:15.842Z,96.10
2019-02-08T03:12:45.231Z,96.20
2019-02-08T03:15:15.367Z,96.30
2019-02-08T03:17:44.998Z,95.90
2019-02-08T03:20:15.192Z,96.20
2019-02-08T03:22:44.686Z,96.30
2019-02-08T03:25:15.436Z,96.30
2019-02-08T03:27:45.323Z,96.40
2019-02-08T03:30:16.554Z,96.40
2019-02-08T03:32:45.983Z,96.20
2019-02-08T03:35:17.558Z,96.20
2019-02-08T03:37:46.917Z,96.20
2019-02-08T03:40:19.006Z,96.10
2019-02-08T03:42:48.466Z,96.20
2019-02-08T03:45:16.364Z,96.40
2019-02-08T03:47:44.297Z,96.20
2019-02-08T03:50:14.124Z,96.30
2019-02-08T03:52:43.460Z,96.50
2019-02-08T03:55:13.031Z,96.40
2019-02-08T03:57:42.422Z,96.50
2019-02-08T04:00:19.514Z,96.40
2019-02-08T04:02:48.872Z,96.30
2019-02-08T04:05:16.774Z,96.30
2019-02-08T04:07:46.458Z,96.50
2019-02-08T04:10:16.040Z,96.30
2019-02-08T04:12:45.376Z,96.30
2019-02-08T04:15:15.442Z,96.10
2019-02-08T04:17:44.923Z,96.20
2019-02-08T04:20:14.503Z,96.20
2019-02-08T04:22:44.240Z,96.00
2019-02-08T04:25:14.199Z,95.90
2019-02-08T04:27:44.542Z,95.80
2019-02-08T04:30:16.363Z,95.80
2019-02-08T04:32:45.646Z,95.50
2019-02-08T04:35:13.526Z,95.60
2019-02-08T04:37:41.432Z,95.40
2019-02-08T04:40:09.506Z,95.40
2019-02-08T04:42:38.789Z,95.40
2019-02-08T04:45:07.456Z,95.30
2019-02-08T04:47:36.766Z,95.40
2019-02-08T04:50:05.467Z,95.40
2019-02-08T04:52:34.771Z,95.10
2019-02-08T04:55:03.913Z,95.30
2019-02-08T04:57:34.307Z,95.30
2019-02-08T05:00:03.950Z,95.20
2019-02-08T05:02:33.503Z,95.10
2019-02-08T05:05:01.262Z,95.10
2019-02-08T05:07:30.657Z,95.00
2019-02-08T05:09:58.430Z,94.80
2019-02-08T05:12:26.180Z,95.00
2019-02-08T05:14:53.956Z,95.50
2019-02-08T05:17:21.719Z,95.40
2019-02-08T05:19:49.589Z,95.30
2019-02-08T05:22:17.440Z,95.30
2019-02-08T05:24:46.160Z,95.20
2019-02-08T05:27:14.219Z,95.10
2019-02-08T05:29:41.927Z,95.20
2019-02-08T05:32:09.877Z,95.10
2019-02-08T05:34:37.679Z,95.10
2019-02-08T05:37:05.476Z,95.30
2019-02-08T05:39:33.386Z,95.30
2019-02-08T05:42:01.349Z,95.50
2019-02-08T05:44:29.146Z,95.60
2019-02-08T05:46:56.922Z,95.70
2019-02-08T05:49:24.697Z,95.70
2019-02-08T05:51:52.457Z,95.80
2019-02-08T05:54:20.165Z,95.70
2019-02-08T05:56:48.017Z,95.60
2019-02-08T05:59:17.738Z,95.60
2019-02-08T06:01:45.484Z,95.60
2019-02-08T06:04:13.195Z,95.70
2019-02-08T06:06:41.173Z,95.70
2019-02-08T06:09:09.446Z,95.50
2019-02-08T06:11:37.143Z,95.40
2019-02-08T06:14:05.120Z,95.40
2019-02-08T06:16:33.295Z,95.20
2019-02-08T06:19:01.190Z,95.30
2019-02-08T06:21:29.255Z,95.50
2019-02-08T06:23:59.045Z,95.30
2019-02-08T06:26:26.851Z,95.00
2019-02-08T06:28:54.705Z,95.40
2019-02-08T06:31:22.388Z,95.60
2019-02-08T06:33:50.293Z,95.90
2019-02-08T06:36:17.995Z,95.90
2019-02-08T06:38:45.745Z,96.00
2019-02-08T06:41:13.454Z,96.00
2019-02-08T06:43:41.223Z,96.20
2019-02-08T06:46:08.957Z,96.20
2019-02-08T06:48:36.756Z,96.20
2019-02-08T06:51:04.600Z,96.30
2019-02-08T06:53:32.539Z,96.30
2019-02-08T06:56:01.128Z,96.20
2019-02-08T06:58:43.809Z,96.30
2019-02-08T07:01:32.593Z,96.20
2019-02-08T07:04:37.485Z,96.20
2019-02-08T07:07:29.503Z,96.10
2019-02-08T07:10:05.891Z,96.20
2019-02-08T07:12:43.502Z,96.20
2019-02-08T07:15:27.005Z,96.10
2019-02-08T07:18:05.606Z,96.10
2019-02-08T07:20:53.214Z,96.20
2019-02-08T07:23:30.754Z,96.10
2019-02-08T07:26:19.642Z,96.00
2019-02-08T07:28:57.805Z,95.80
2019-02-08T07:31:40.100Z,96.20
2019-02-08T07:34:18.326Z,96.50
2019-02-08T07:37:05.855Z,96.90
2019-02-08T07:39:56.682Z,96.70
2019-02-08T07:42:46.087Z,96.80
2019-02-08T07:45:21.725Z,96.90
2019-02-08T07:48:01.742Z,96.80
2019-02-08T07:50:48.954Z,96.90
2019-02-08T07:53:46.905Z,96.60
2019-02-08T07:56:41.038Z,96.60
2019-02-08T07:59:32.964Z,96.80
2019-02-08T08:02:18.208Z,96.70
2019-02-08T08:05:00.710Z,96.70
2019-02-08T08:07:47.430Z,96.90
2019-02-08T08:10:43.835Z,96.90
2019-02-08T08:13:32.947Z,97.40
2019-02-08T08:16:09.422Z,97.10
2019-02-08T08:18:47.531Z,97.20
2019-02-08T08:21:39.997Z,97.10
2019-02-08T08:24:19.162Z,97.30
2019-02-08T08:27:07.362Z,97.10
2019-02-08T08:29:58.050Z,97.20
2019-02-08T08:32:52.098Z,97.20
2019-02-08T08:36:00.999Z,97.10
2019-02-08T08:39:09.554Z,96.90
2019-02-08T08:42:09.237Z,96.90
2019-02-08T08:45:32.336Z,96.90
2019-02-08T08:48:25.324Z,96.70
2019-02-08T08:51:27.745Z,97.00
2019-02-08T08:54:54.903Z,96.70
2019-02-08T08:57:50.838Z,96.90
2019-02-08T09:00:56.982Z,97.00
2019-02-08T09:03:45.999Z,97.00
2019-02-08T09:06:58.023Z,96.70
2019-02-08T09:10:13.211Z,96.30
2019-02-08T09:13:19.838Z,96.10
2019-02-08T09:16:44.937Z,96.20
2019-02-08T09:20:11.274Z,95.70
2019-02-08T09:22:52.742Z,94.70
2019-02-08T09:26:02.290Z,94.70
2019-02-08T09:29:00.888Z,94.40
2019-02-08T09:32:12.006Z,94.00
2019-02-08T09:35:19.885Z,93.30
2019-02-08T09:38:32.057Z,92.90
2019-02-08T09:41:37.465Z,91.90
2019-02-08T09:44:47.102Z,91.30
2019-02-08T09:48:02.686Z,90.60
2019-02-08T09:51:12.669Z,90.30
2019-02-08T09:54:18.482Z,90.20
2019-02-08T09:57:12.189Z,90.10
2019-02-08T10:00:28.605Z,90.50
2019-02-08T10:03:42.784Z,90.20
2019-02-08T10:06:38.993Z,91.20
2019-02-08T10:09:41.807Z,91.00
2019-02-08T10:13:04.418Z,91.20
2019-02-08T10:16:10.198Z,91.20
2019-02-08T10:19:30.789Z,91.50
2019-02-08T10:22:39.177Z,91.90
2019-02-08T10:25:37.743Z,92.20
2019-02-08T10:28:43.566Z,91.70
2019-02-08T10:32:06.829Z,91.40
2019-02-08T10:35:28.223Z,90.80
2019-02-08T10:38:51.888Z,91.10
2019-02-08T10:41:58.900Z,91.20
2019-02-08T10:45:14.257Z,91.30
2019-02-08T10:48:20.305Z,90.70
2019-02-08T10:51:30.519Z,90.80
2019-02-08T10:55:01.038Z,90.90
2019-02-08T10:58:08.338Z,90.80
2019-02-08T11:01:11.241Z,90.50
2019-02-08T11:04:17.424Z,90.50
2019-02-08T11:07:17.518Z,90.00
2019-02-08T11:10:07.423Z,88.20
2019-02-08T11:13:24.969Z,89.80
2019-02-08T11:16:43.343Z,89.00
2019-02-08T11:19:18.983Z,87.10
2019-02-08T11:21:48.270Z,88.00
2019-02-08T11:24:17.848Z,88.30
2019-02-08T11:26:47.422Z,88.30
2019-02-08T11:29:15.239Z,88.50
2019-02-08T11:31:43.199Z,87.30
2019-02-08T11:34:11.092Z,86.90
2019-02-08T11:36:39.308Z,88.30
2019-02-08T11:39:16.260Z,88.40
2019-02-08T11:41:45.216Z,88.10
2019-02-08T11:44:13.437Z,87.70
2019-02-08T11:46:41.646Z,86.40
2019-02-08T11:49:09.607Z,84.90
2019-02-08T11:51:37.570Z,84.50
2019-02-08T11:54:05.486Z,84.60
2019-02-08T11:56:33.339Z,84.80
2019-02-08T11:59:01.137Z,84.30
2019-02-08T12:01:34.378Z,84.40
2019-02-08T12:04:04.681Z,84.80
2019-02-08T12:06:32.589Z,84.80
2019-02-08T12:09:00.385Z,85.00
2019-02-08T12:11:28.340Z,83.90
2019-02-08T12:13:56.294Z,84.10
2019-02-08T12:16:23.868Z,83.10
2019-02-08T12:18:51.648Z,83.00
2019-02-08T12:21:19.341Z,83.40
2019-02-08T12:23:47.194Z,82.90
2019-02-08T12:26:14.900Z,83.40
2019-02-08T12:28:42.849Z,82.50
2019-02-08T12:31:10.556Z,82.80
2019-02-08T12:33:38.523Z,83.70
2019-02-08T12:36:06.346Z,82.20
2019-02-08T12:38:34.151Z,81.80
2019-02-08T12:41:09.496Z,81.80
2019-02-08T12:43:31.925Z,81.60
2019-02-08T12:45:59.757Z,82.30
2019-02-08T12:48:27.685Z,80.80
2019-02-08T12:50:55.609Z,80.90
2019-02-08T12:53:23.459Z,81.20
2019-02-08T12:55:51.170Z,81.20
2019-02-08T12:58:18.986Z,80.90
2019-02-08T13:00:47.068Z,80.80
2019-02-08T13:03:14.794Z,79.80
2019-02-08T13:05:42.690Z,81.00
2019-02-08T13:08:10.625Z,79.20
2019-02-08T13:10:38.706Z,80.10
2019-02-08T13:13:06.648Z,77.30
2019-02-08T13:15:34.440Z,77.40
2019-02-08T13:18:02.157Z,78.60
2019-02-08T13:20:30.152Z,77.20
2019-02-08T13:22:58.222Z,78.50
2019-02-08T13:25:26.192Z,76.30
2019-02-08T13:27:55.535Z,77.10
2019-02-08T13:30:25.983Z,77.20
2019-02-08T13:32:55.433Z,76.30
2019-02-08T13:35:23.404Z,77.40
2019-02-08T13:37:51.955Z,77.80
2019-02-08T13:40:20.161Z,76.60
2019-02-08T13:42:49.691Z,76.30
2019-02-08T13:45:18.134Z,76.00
2019-02-08T13:47:46.595Z,75.50
2019-02-08T13:50:20.288Z,75.50
2019-02-08T13:52:49.717Z,74.50
2019-02-08T13:55:19.137Z,74.70
2019-02-08T13:57:48.505Z,74.60
2019-02-08T14:00:22.494Z,75.00
2019-02-08T14:02:51.903Z,73.60
2019-02-08T14:05:19.918Z,74.00
2019-02-08T14:07:47.932Z,73.50
2019-02-08T14:10:16.748Z,73.20
2019-02-08T14:12:46.284Z,72.50
2019-02-08T14:15:15.649Z,72.70
2019-02-08T14:17:45.087Z,73.40
2019-02-08T14:20:15.701Z,74.40
2019-02-08T14:22:45.121Z,73.50
2019-02-08T14:25:13.530Z,73.80
2019-02-08T14:27:45.933Z,74.90
2019-02-08T14:30:19.990Z,73.90
2019-02-08T14:32:49.454Z,73.50
2019-02-08T14:35:17.309Z,75.00
2019-02-08T14:37:45.209Z,74.60
2019-02-08T14:40:16.281Z,73.90
2019-02-08T14:42:45.751Z,74.10
2019-02-08T14:45:14.218Z,72.90
2019-02-08T14:47:42.319Z,73.10
2019-02-08T14:50:13.145Z,72.30
2019-02-08T14:52:42.787Z,73.10
2019-02-08T14:55:10.823Z,72.90
2019-02-08T14:57:39.198Z,72.70
2019-02-08T15:00:10.747Z,73.00
2019-02-08T15:02:42.235Z,73.90
2019-02-08T15:05:11.891Z,73.60
2019-02-08T15:07:41.407Z,74.30
2019-02-08T15:10:30.227Z,73.30
2019-02-08T15:13:00.349Z,74.10
2019-02-08T15:15:28.404Z,73.90
2019-02-08T15:18:08.209Z,72.20
2019-02-08T15:20:38.344Z,73.80
2019-02-08T15:23:06.453Z,73.40
2019-02-08T15:25:34.238Z,73.10
2019-02-08T15:28:02.062Z,73.00
2019-02-08T15:30:31.267Z,73.30
2019-02-08T15:33:00.670Z,73.60
2019-02-08T15:35:29.033Z,73.70
2019-02-08T15:37:57.240Z,73.50
2019-02-08T15:40:43.082Z,74.70
2019-02-08T15:43:16.253Z,73.80
2019-02-08T15:45:49.277Z,74.20
2019-02-08T15:48:18.824Z,74.10
2019-02-08T15:50:46.924Z,73.70
2019-02-08T15:53:14.838Z,74.10
2019-02-08T15:55:44.362Z,73.80
2019-02-08T15:58:18.968Z,73.70
2019-02-08T16:00:49.069Z,73.50
2019-02-08T16:03:20.045Z,74.00
2019-02-08T16:05:51.019Z,74.10
2019-02-08T16:08:19.594Z,73.90
2019-02-08T16:10:47.525Z,74.50
2019-02-08T16:13:15.381Z,74.70
2019-02-08T16:15:51.316Z,74.40
2019-02-08T16:18:19.246Z,75.00
2019-02-08T16:20:47.253Z,75.10
2019-02-08T16:23:15.202Z,74.70
2019-02-08T16:25:43.046Z,74.70
2019-02-08T16:28:11.076Z,74.90
2019-02-08T16:30:39.178Z,75.90
2019-02-08T16:33:07.191Z,76.20
2019-02-08T16:35:35.217Z,76.40
2019-02-08T16:38:04.241Z,76.70
2019-02-08T16:40:33.281Z,76.70
2019-02-08T16:43:01.280Z,76.80
2019-02-08T16:45:31.698Z,76.90
2019-02-08T16:48:01.718Z,77.30
2019-02-08T16:50:31.465Z,76.90
2019-02-08T16:53:00.002Z,76.90
2019-02-08T16:55:28.585Z,76.80
2019-02-08T16:57:56.558Z,77.60
2019-02-08T17:00:29.797Z,77.50
2019-02-08T17:03:00.840Z,78.10
2019-02-08T17:05:30.201Z,77.80
2019-02-08T17:07:58.760Z,78.50
2019-02-08T17:10:27.532Z,78.00
2019-02-08T17:12:55.422Z,78.80
2019-02-08T17:15:24.992Z,77.90
2019-02-08T17:17:54.888Z,78.40
2019-02-08T17:20:25.457Z,78.80
2019-02-08T17:22:54.911Z,78.80
2019-02-08T17:25:22.978Z,79.00
2019-02-08T17:27:55.374Z,79.00
2019-02-08T17:30:20.878Z,78.40
2019-02-08T17:32:48.849Z,79.40
2019-02-08T17:35:17.127Z,78.70
2019-02-08T17:37:46.423Z,78.20
2019-02-08T17:40:17.277Z,77.70
2019-02-08T17:42:46.582Z,77.60
2019-02-08T17:45:15.773Z,77.70
2019-02-08T17:47:45.350Z,77.70
2019-02-08T17:50:16.582Z,77.60
2019-02-08T17:52:45.898Z,78.20
2019-02-08T17:55:15.489Z,78.00
2019-02-08T17:57:44.803Z,78.20
2019-02-08T18:00:19.739Z,77.60
2019-02-08T18:02:49.074Z,77.30
2019-02-08T18:05:16.866Z,77.50
2019-02-08T18:07:44.706Z,77.50
2019-02-08T18:10:15.337Z,77.20
2019-02-08T18:12:44.835Z,76.70
2019-02-08T18:15:15.251Z,77.10
2019-02-08T18:17:44.859Z,77.60
2019-02-08T18:20:33.920Z,77.50
2019-02-08T18:23:03.715Z,77.70
2019-02-08T18:25:31.686Z,78.00
2019-02-08T18:27:59.653Z,78.00
2019-02-08T18:30:29.109Z,78.50
2019-02-08T18:32:57.172Z,78.40
2019-02-08T18:35:24.917Z,78.80
2019-02-08T18:37:52.746Z,78.80
2019-02-08T18:40:20.441Z,79.50
2019-02-08T18:42:49.916Z,79.80
2019-02-08T18:45:20.306Z,79.60
2019-02-08T18:47:49.722Z,80.00
2019-02-08T18:50:22.941Z,80.20
2019-02-08T18:52:52.358Z,80.50
2019-02-08T18:55:20.219Z,80.70
2019-02-08T18:57:48.203Z,80.80
2019-02-08T19:00:18.834Z,80.50
2019-02-08T19:02:48.295Z,80.40
2019-02-08T19:05:16.526Z,80.20
2019-02-08T19:07:44.622Z,80.00
2019-02-08T19:10:14.673Z,79.80
2019-02-08T19:12:44.162Z,79.80
2019-02-08T19:15:14.395Z,79.90
2019-02-08T19:17:43.888Z,79.60
2019-02-08T19:20:14.382Z,79.50
2019-02-08T19:22:43.810Z,79.50
2019-02-08T19:25:14.473Z,80.10
2019-02-08T19:27:44.053Z,79.20
2019-02-08T19:30:15.408Z,79.20
2019-02-08T19:32:44.929Z,79.10
2019-02-08T19:35:13.315Z,78.90
2019-02-08T19:37:41.800Z,78.80
2019-02-08T19:40:12.196Z,78.70
2019-02-08T19:42:41.759Z,78.80
2019-02-08T19:45:11.204Z,79.30
2019-02-08T19:47:40.693Z,78.70
2019-02-08T19:50:11.535Z,78.70
2019-02-08T19:52:41.057Z,78.90
2019-02-08T19:55:09.698Z,78.90
2019-02-08T19:57:38.055Z,79.30
2019-02-08T20:00:10.617Z,79.70
2019-02-08T20:02:40.009Z,79.80
2019-02-08T20:05:12.132Z,79.80
2019-02-08T20:07:41.944Z,79.60
2019-02-08T20:10:13.034Z,80.50
2019-02-08T20:12:42.484Z,80.10
2019-02-08T20:15:12.417Z,80.40
2019-02-08T20:17:41.817Z,80.40
2019-02-08T20:20:09.805Z,80.50
2019-02-08T20:22:37.914Z,80.10
2019-02-08T20:25:08.941Z,80.10
2019-02-08T20:27:38.351Z,80.40
2019-02-08T20:30:09.174Z,80.50
2019-02-08T20:32:38.579Z,80.30
2019-02-08T20:35:08.681Z,80.50
2019-02-08T20:37:38.091Z,80.60
2019-02-08T20:40:11.394Z,80.20
2019-02-08T20:42:40.997Z,80.40
2019-02-08T20:45:18.869Z,80.10
2019-02-08T20:47:48.268Z,80.00
2019-02-08T20:50:17.835Z,79.90
2019-02-08T20:52:47.380Z,79.60
2019-02-08T20:55:18.890Z,79.60
2019-02-08T20:57:48.255Z,79.40
2019-02-08T21:00:27.357Z,78.90
2019-02-08T21:02:58.064Z,78.90
2019-02-08T21:05:27.283Z,78.50
2019-02-08T21:07:56.658Z,78.70
2019-02-08T21:10:24.949Z,78.00
2019-02-08T21:12:53.399Z,78.50
2019-02-08T21:15:21.360Z,78.30
2019-02-08T21:17:49.821Z,78.40
2019-02-08T21:20:17.784Z,78.30
2019-02-08T21:22:45.897Z,78.20
2019-02-08T21:25:16.904Z,78.10
2019-02-08T21:27:46.313Z,78.10
2019-02-08T21:30:14.772Z,77.80
2019-02-08T21:32:43.459Z,77.80
2019-02-08T21:35:11.632Z,77.90
2019-02-08T21:37:41.294Z,78.10
2019-02-08T21:40:10.415Z,78.00
2019-02-08T21:42:40.460Z,77.90
2019-02-08T21:45:11.338Z,77.60
2019-02-08T21:47:40.727Z,77.90
2019-02-08T21:50:10.851Z,77.60
2019-02-08T21:52:40.367Z,77.40
2019-02-08T21:55:09.370Z,76.90
2019-02-08T21:57:38.783Z,76.90
2019-02-08T22:00:17.687Z,77.10
2019-02-08T22:02:47.194Z,77.50
2019-02-08T22:05:15.428Z,77.50
2019-02-08T22:07:44.853Z,77.50
2019-02-08T22:10:12.806Z,78.30
2019-02-08T22:12:41.726Z,77.40
2019-02-08T22:15:12.514Z,77.80
2019-02-08T22:17:45.935Z,77.50
2019-02-08T22:20:15.522Z,78.00
2019-02-08T22:22:44.350Z,78.10
2019-02-08T22:25:14.665Z,78.00
2019-02-08T22:27:44.148Z,78.20
2019-02-08T22:30:17.530Z,78.00
2019-02-08T22:32:47.354Z,78.00
2019-02-08T22:35:17.249Z,77.60
2019-02-08T22:37:48.810Z,77.40
2019-02-08T22:40:18.005Z,77.60
2019-02-08T22:42:47.418Z,77.40
2019-02-08T22:45:17.853Z,77.10
2019-02-08T22:47:47.162Z,77.40
2019-02-08T22:50:15.259Z,77.80
2019-02-08T22:52:43.637Z,77.90
2019-02-08T22:55:14.411Z,77.70
2019-02-08T22:57:43.713Z,76.80
2019-02-08T23:01:02.572Z,76.20
2019-02-08T23:03:35.870Z,75.50
2019-02-08T23:06:06.082Z,75.70
2019-02-08T23:08:33.880Z,76.10
2019-02-08T23:11:02.489Z,76.60
2019-02-08T23:13:31.319Z,76.20
2019-02-08T23:15:59.211Z,76.60
2019-02-08T23:18:26.982Z,76.60
2019-02-08T23:20:55.242Z,75.70
2019-02-08T23:23:22.957Z,76.10
2019-02-08T23:25:50.832Z,76.40
2019-02-08T23:28:18.563Z,76.90
2019-02-08T23:30:46.444Z,76.50
2019-02-08T23:33:14.325Z,77.20
2019-02-08T23:35:43.256Z,76.90
2019-02-08T23:38:11.185Z,77.10
2019-02-08T23:40:38.865Z,77.30
2019-02-08T23:43:06.715Z,77.20
2019-02-08T23:45:34.524Z,77.50
2019-02-08T23:48:02.274Z,77.30
2019-02-08T23:50:30.083Z,77.30
2019-02-08T23:52:58.056Z,77.50
2019-02-08T23:55:25.810Z,76.90
2019-02-08T23:57:53.693Z,77.50
